Terminal Aerodrome Forecast
Issued by NWS

Current Version | Previous Version | Text Only | Print | Product List | Glossary On
Versions: 1 2 3 4 5 6 7 8 9 10 11 12 13 14
985
FTUS45 KRIW 271730
TAFBPI
TAF
KBPI 271730Z 2718/2818 VRB05KT 3SM FU BKN013
     FM271900 29008KT 5SM FU SCT020
     FM272000 32013G21KT P6SM FEW100
     FM280100 34011KT P6SM FEW110
     FM280600 35006KT P6SM FEW120=

USA.gov is the U.S. government's official web portal to all federal, state and local government web resources and services.